sensor_id;sensor_type;location;lat;lon;timestamp;pressure;altitude;pressure_sealevel;temperature;humidity
11314;BME280;5712;48.858;9.206;2022-08-19T00:00:48;97705.91;;;21.06;81.90
11314;BME280;5712;48.858;9.206;2022-08-19T00:03:15;97704.72;;;21.08;81.79
11314;BME280;5712;48.858;9.206;2022-08-19T00:05:42;97693.97;;;21.08;81.71
11314;BME280;5712;48.858;9.206;2022-08-19T00:08:10;97693.16;;;21.08;81.99
11314;BME280;5712;48.858;9.206;2022-08-19T00:10:37;97680.19;;;21.11;81.44
11314;BME280;5712;48.858;9.206;2022-08-19T00:13:04;97682.88;;;21.11;81.42
11314;BME280;5712;48.858;9.206;2022-08-19T00:15:31;97692.31;;;21.07;81.52
11314;BME280;5712;48.858;9.206;2022-08-19T00:17:57;97697.84;;;21.06;81.63
11314;BME280;5712;48.858;9.206;2022-08-19T00:20:24;97698.34;;;21.09;81.57
11314;BME280;5712;48.858;9.206;2022-08-19T00:22:51;97712.25;;;21.13;80.87
11314;BME280;5712;48.858;9.206;2022-08-19T00:25:19;97701.69;;;21.11;81.18
11314;BME280;5712;48.858;9.206;2022-08-19T00:27:46;97698.63;;;21.14;80.62
11314;BME280;5712;48.858;9.206;2022-08-19T00:30:13;97697.31;;;21.10;81.08
11314;BME280;5712;48.858;9.206;2022-08-19T00:32:40;97691.59;;;21.13;80.59
11314;BME280;5712;48.858;9.206;2022-08-19T00:35:07;97691.94;;;21.10;80.61
11314;BME280;5712;48.858;9.206;2022-08-19T00:37:35;97682.41;;;21.08;80.78
11314;BME280;5712;48.858;9.206;2022-08-19T00:40:03;97669.97;;;21.07;81.00
11314;BME280;5712;48.858;9.206;2022-08-19T00:42:32;97664.97;;;21.04;80.87
11314;BME280;5712;48.858;9.206;2022-08-19T00:44:59;97658.41;;;21.06;80.96
11314;BME280;5712;48.858;9.206;2022-08-19T00:47:26;97657.38;;;21.07;80.59
11314;BME280;5712;48.858;9.206;2022-08-19T00:49:56;97669.16;;;21.06;80.78
11314;BME280;5712;48.858;9.206;2022-08-19T00:52:27;97677.84;;;21.08;80.75
11314;BME280;5712;48.858;9.206;2022-08-19T00:54:56;97684.06;;;21.09;80.65
11314;BME280;5712;48.858;9.206;2022-08-19T00:57:28;97683.13;;;21.02;81.15
11314;BME280;5712;48.858;9.206;2022-08-19T00:59:59;97688.97;;;21.05;80.67
11314;BME280;5712;48.858;9.206;2022-08-19T01:02:27;97691.84;;;21.04;81.04
11314;BME280;5712;48.858;9.206;2022-08-19T01:04:54;97685.28;;;21.06;81.02
11314;BME280;5712;48.858;9.206;2022-08-19T01:07:21;97690.66;;;21.06;81.17
11314;BME280;5712;48.858;9.206;2022-08-19T01:09:48;97689.06;;;21.12;80.94
11314;BME280;5712;48.858;9.206;2022-08-19T01:12:15;97684.91;;;21.09;81.13
11314;BME280;5712;48.858;9.206;2022-08-19T01:14:43;97687.88;;;21.14;80.94
11314;BME280;5712;48.858;9.206;2022-08-19T01:17:12;97686.28;;;21.05;81.19
11314;BME280;5712;48.858;9.206;2022-08-19T01:19:42;97682.28;;;21.01;81.49
11314;BME280;5712;48.858;9.206;2022-08-19T01:22:14;97678.59;;;21.02;81.25
11314;BME280;5712;48.858;9.206;2022-08-19T01:24:43;97678.88;;;21.07;81.14
11314;BME280;5712;48.858;9.206;2022-08-19T01:27:09;97676.28;;;20.99;81.31
11314;BME280;5712;48.858;9.206;2022-08-19T01:29:38;97681.09;;;21.04;81.35
11314;BME280;5712;48.858;9.206;2022-08-19T01:32:06;97680.63;;;21.00;81.48
11314;BME280;5712;48.858;9.206;2022-08-19T01:34:33;97674.78;;;20.97;81.74
11314;BME280;5712;48.858;9.206;2022-08-19T01:37:05;97672.28;;;20.95;81.96
11314;BME280;5712;48.858;9.206;2022-08-19T01:39:33;97670.13;;;20.91;82.22
11314;BME280;5712;48.858;9.206;2022-08-19T01:42:02;97673.47;;;20.93;82.38
11314;BME280;5712;48.858;9.206;2022-08-19T01:44:29;97680.50;;;20.94;82.18
11314;BME280;5712;48.858;9.206;2022-08-19T01:46:56;97679.06;;;20.83;82.89
11314;BME280;5712;48.858;9.206;2022-08-19T01:49:24;97678.09;;;20.76;83.18
11314;BME280;5712;48.858;9.206;2022-08-19T01:51:52;97676.44;;;20.75;83.63
11314;BME280;5712;48.858;9.206;2022-08-19T01:54:21;97669.75;;;20.71;83.84
11314;BME280;5712;48.858;9.206;2022-08-19T01:56:48;97668.56;;;20.74;83.84
11314;BME280;5712;48.858;9.206;2022-08-19T01:59:19;97680.97;;;20.75;83.57
11314;BME280;5712;48.858;9.206;2022-08-19T02:01:47;97673.38;;;20.78;83.48
11314;BME280;5712;48.858;9.206;2022-08-19T02:04:14;97680.78;;;20.76;83.77
11314;BME280;5712;48.858;9.206;2022-08-19T02:06:41;97681.81;;;20.75;83.62
11314;BME280;5712;48.858;9.206;2022-08-19T02:09:09;97685.88;;;20.71;84.34
11314;BME280;5712;48.858;9.206;2022-08-19T02:11:37;97690.22;;;20.72;84.39
11314;BME280;5712;48.858;9.206;2022-08-19T02:14:06;97691.25;;;20.71;84.38
11314;BME280;5712;48.858;9.206;2022-08-19T02:16:35;97682.16;;;20.72;84.46
11314;BME280;5712;48.858;9.206;2022-08-19T02:19:03;97677.16;;;20.69;84.54
11314;BME280;5712;48.858;9.206;2022-08-19T02:21:30;97684.53;;;20.67;84.99
11314;BME280;5712;48.858;9.206;2022-08-19T02:23:57;97691.09;;;20.65;85.21
11314;BME280;5712;48.858;9.206;2022-08-19T02:26:24;97687.47;;;20.58;85.38
11314;BME280;5712;48.858;9.206;2022-08-19T02:28:53;97690.06;;;20.51;85.94
11314;BME280;5712;48.858;9.206;2022-08-19T02:31:22;97675.22;;;20.55;85.91
11314;BME280;5712;48.858;9.206;2022-08-19T02:33:51;97688.38;;;20.50;86.36
11314;BME280;5712;48.858;9.206;2022-08-19T02:36:18;97692.44;;;20.46;86.76
11314;BME280;5712;48.858;9.206;2022-08-19T02:38:45;97684.06;;;20.41;86.96
11314;BME280;5712;48.858;9.206;2022-08-19T02:41:13;97690.50;;;20.32;87.68
11314;BME280;5712;48.858;9.206;2022-08-19T02:43:40;97685.16;;;20.32;87.74
11314;BME280;5712;48.858;9.206;2022-08-19T02:46:15;97674.56;;;20.31;87.81
11314;BME280;5712;48.858;9.206;2022-08-19T02:48:47;97687.84;;;20.24;88.32
11314;BME280;5712;48.858;9.206;2022-08-19T02:51:21;97687.84;;;20.24;88.36
11314;BME280;5712;48.858;9.206;2022-08-19T02:53:48;97680.28;;;20.28;88.01
11314;BME280;5712;48.858;9.206;2022-08-19T02:56:15;97685.47;;;20.29;87.88
11314;BME280;5712;48.858;9.206;2022-08-19T02:58:42;97679.78;;;20.32;87.84
11314;BME280;5712;48.858;9.206;2022-08-19T03:01:10;97670.56;;;20.27;88.06
11314;BME280;5712;48.858;9.206;2022-08-19T03:03:37;97667.72;;;20.28;88.24
11314;BME280;5712;48.858;9.206;2022-08-19T03:06:07;97670.31;;;20.14;89.01
11314;BME280;5712;48.858;9.206;2022-08-19T03:08:37;97665.13;;;20.04;90.30
11314;BME280;5712;48.858;9.206;2022-08-19T03:11:04;97672.91;;;19.91;91.55
11314;BME280;5712;48.858;9.206;2022-08-19T03:13:30;97671.28;;;19.82;92.40
11314;BME280;5712;48.858;9.206;2022-08-19T03:15:57;97682.69;;;19.76;93.07
11314;BME280;5712;48.858;9.206;2022-08-19T03:18:24;97681.72;;;19.77;92.66
11314;BME280;5712;48.858;9.206;2022-08-19T03:20:51;97681.03;;;19.75;92.99
11314;BME280;5712;48.858;9.206;2022-08-19T03:23:19;97687.34;;;19.82;92.52
11314;BME280;5712;48.858;9.206;2022-08-19T03:25:49;97693.19;;;19.94;91.52
11314;BME280;5712;48.858;9.206;2022-08-19T03:28:16;97693.69;;;19.97;91.22
11314;BME280;5712;48.858;9.206;2022-08-19T03:30:54;97691.97;;;20.04;90.34
11314;BME280;5712;48.858;9.206;2022-08-19T03:33:22;97689.16;;;20.06;90.17
11314;BME280;5712;48.858;9.206;2022-08-19T03:36:00;97684.59;;;20.06;89.88
11314;BME280;5712;48.858;9.206;2022-08-19T03:38:26;97684.59;;;20.06;89.54
11314;BME280;5712;48.858;9.206;2022-08-19T03:40:54;97682.09;;;20.05;89.88
11314;BME280;5712;48.858;9.206;2022-08-19T03:43:21;97690.31;;;20.03;89.95
11314;BME280;5712;48.858;9.206;2022-08-19T03:45:48;97700.06;;;19.96;90.37
11314;BME280;5712;48.858;9.206;2022-08-19T03:48:16;97692.66;;;19.98;90.13
11314;BME280;5712;48.858;9.206;2022-08-19T03:50:43;97694.00;;;20.02;89.92
11314;BME280;5712;48.858;9.206;2022-08-19T03:53:09;97689.44;;;20.03;89.35
11314;BME280;5712;48.858;9.206;2022-08-19T03:55:39;97682.59;;;20.08;89.39
11314;BME280;5712;48.858;9.206;2022-08-19T03:58:07;97684.09;;;20.03;89.52
11314;BME280;5712;48.858;9.206;2022-08-19T04:00:36;97683.97;;;19.96;89.97
11314;BME280;5712;48.858;9.206;2022-08-19T04:03:03;97697.06;;;19.91;90.30
11314;BME280;5712;48.858;9.206;2022-08-19T04:05:30;97691.69;;;19.91;90.18
11314;BME280;5712;48.858;9.206;2022-08-19T04:07:57;97692.03;;;19.88;90.54
11314;BME280;5712;48.858;9.206;2022-08-19T04:10:24;97698.72;;;19.92;90.27
11314;BME280;5712;48.858;9.206;2022-08-19T04:12:50;97706.13;;;19.90;90.34
11314;BME280;5712;48.858;9.206;2022-08-19T04:15:19;97698.06;;;19.90;90.49
11314;BME280;5712;48.858;9.206;2022-08-19T04:17:46;97689.34;;;19.88;90.67
11314;BME280;5712;48.858;9.206;2022-08-19T04:20:13;97692.25;;;19.79;91.15
11314;BME280;5712;48.858;9.206;2022-08-19T04:22:39;97691.25;;;19.80;91.21
11314;BME280;5712;48.858;9.206;2022-08-19T04:25:06;97691.41;;;19.78;91.03
11314;BME280;5712;48.858;9.206;2022-08-19T04:27:33;97695.41;;;19.82;91.08
11314;BME280;5712;48.858;9.206;2022-08-19T04:30:00;97697.75;;;19.85;90.83
11314;BME280;5712;48.858;9.206;2022-08-19T04:32:28;97691.38;;;19.86;90.97
11314;BME280;5712;48.858;9.206;2022-08-19T04:34:57;97688.38;;;19.89;90.55
11314;BME280;5712;48.858;9.206;2022-08-19T04:37:24;97688.88;;;19.85;90.98
11314;BME280;5712;48.858;9.206;2022-08-19T04:39:52;97682.00;;;19.82;91.13
11314;BME280;5712;48.858;9.206;2022-08-19T04:42:36;97684.03;;;19.80;91.26
11314;BME280;5712;48.858;9.206;2022-08-19T04:45:06;97688.22;;;19.83;90.95
11314;BME280;5712;48.858;9.206;2022-08-19T04:47:36;97690.72;;;19.84;91.01
11314;BME280;5712;48.858;9.206;2022-08-19T04:50:05;97701.78;;;19.81;91.22
11314;BME280;5712;48.858;9.206;2022-08-19T04:52:31;97688.56;;;19.80;91.34
11314;BME280;5712;48.858;9.206;2022-08-19T04:54:58;97700.78;;;19.82;90.96
11314;BME280;5712;48.858;9.206;2022-08-19T04:57:25;97700.59;;;19.84;90.84
11314;BME280;5712;48.858;9.206;2022-08-19T04:59:53;97694.75;;;19.80;91.13
11314;BME280;5712;48.858;9.206;2022-08-19T05:02:20;97703.94;;;19.86;90.84
11314;BME280;5712;48.858;9.206;2022-08-19T05:04:49;97705.81;;;19.85;91.26
11314;BME280;5712;48.858;9.206;2022-08-19T05:07:16;97703.59;;;19.89;90.86
11314;BME280;5712;48.858;9.206;2022-08-19T05:09:43;97708.13;;;19.88;90.90
11314;BME280;5712;48.858;9.206;2022-08-19T05:12:09;97706.44;;;19.95;90.42
11314;BME280;5712;48.858;9.206;2022-08-19T05:14:36;97713.63;;;19.95;90.26
11314;BME280;5712;48.858;9.206;2022-08-19T05:17:03;97720.56;;;19.89;90.78
11314;BME280;5712;48.858;9.206;2022-08-19T05:19:30;97728.88;;;19.94;90.48
11314;BME280;5712;48.858;9.206;2022-08-19T05:22:15;97730.06;;;20.00;90.09
11314;BME280;5712;48.858;9.206;2022-08-19T05:25:03;97738.44;;;19.97;90.28
11314;BME280;5712;48.858;9.206;2022-08-19T05:27:31;97744.97;;;19.94;90.35
11314;BME280;5712;48.858;9.206;2022-08-19T05:29:58;97751.69;;;19.98;90.32
11314;BME280;5712;48.858;9.206;2022-08-19T05:32:26;97763.38;;;20.05;89.67
11314;BME280;5712;48.858;9.206;2022-08-19T05:34:53;97767.94;;;20.05;90.00
11314;BME280;5712;48.858;9.206;2022-08-19T05:37:22;97777.81;;;20.04;89.84
11314;BME280;5712;48.858;9.206;2022-08-19T05:39:52;97777.66;;;20.14;89.75
11314;BME280;5712;48.858;9.206;2022-08-19T05:42:20;97784.88;;;20.13;89.49
11314;BME280;5712;48.858;9.206;2022-08-19T05:44:48;97798.09;;;20.15;89.36
11314;BME280;5712;48.858;9.206;2022-08-19T05:47:16;97798.09;;;20.15;89.34
11314;BME280;5712;48.858;9.206;2022-08-19T05:49:44;97796.75;;;20.19;89.17
11314;BME280;5712;48.858;9.206;2022-08-19T05:52:13;97794.88;;;20.19;89.29
11314;BME280;5712;48.858;9.206;2022-08-19T05:54:43;97792.19;;;20.19;89.35
11314;BME280;5712;48.858;9.206;2022-08-19T05:57:13;97782.00;;;20.15;89.25
11314;BME280;5712;48.858;9.206;2022-08-19T05:59:39;97776.94;;;20.20;89.10
11314;BME280;5712;48.858;9.206;2022-08-19T06:02:07;97793.41;;;20.17;89.16
11314;BME280;5712;48.858;9.206;2022-08-19T06:04:33;97795.78;;;20.12;89.65
11314;BME280;5712;48.858;9.206;2022-08-19T06:07:00;97789.91;;;20.08;89.58
11314;BME280;5712;48.858;9.206;2022-08-19T06:09:28;97788.53;;;20.12;89.71
11314;BME280;5712;48.858;9.206;2022-08-19T06:11:58;97785.84;;;20.12;89.59
11314;BME280;5712;48.858;9.206;2022-08-19T06:14:28;97787.84;;;20.18;89.17
11314;BME280;5712;48.858;9.206;2022-08-19T06:16:55;97792.19;;;20.19;89.03
11314;BME280;5712;48.858;9.206;2022-08-19T06:19:22;97787.84;;;20.26;88.88
11314;BME280;5712;48.858;9.206;2022-08-19T06:21:51;97784.94;;;20.28;88.62
11314;BME280;5712;48.858;9.206;2022-08-19T06:24:20;97783.44;;;20.33;88.11
11314;BME280;5712;48.858;9.206;2022-08-19T06:26:49;97778.06;;;20.33;87.82
11314;BME280;5712;48.858;9.206;2022-08-19T06:29:19;97781.28;;;20.29;88.43
11314;BME280;5712;48.858;9.206;2022-08-19T06:31:48;97783.78;;;20.30;88.23
11314;BME280;5712;48.858;9.206;2022-08-19T06:34:16;97792.50;;;20.32;88.45
11314;BME280;5712;48.858;9.206;2022-08-19T06:36:45;97795.41;;;20.15;89.52
11314;BME280;5712;48.858;9.206;2022-08-19T06:39:14;97788.59;;;19.88;92.92
11314;BME280;5712;48.858;9.206;2022-08-19T06:41:43;97793.03;;;19.65;95.32
11314;BME280;5712;48.858;9.206;2022-08-19T06:44:10;97801.91;;;19.58;95.71
11314;BME280;5712;48.858;9.206;2022-08-19T06:46:40;97804.44;;;19.35;98.33
11314;BME280;5712;48.858;9.206;2022-08-19T06:49:08;97802.75;;;19.26;100.00
11314;BME280;5712;48.858;9.206;2022-08-19T06:51:35;97800.78;;;19.28;99.37
11314;BME280;5712;48.858;9.206;2022-08-19T06:54:02;97799.41;;;19.16;100.00
11314;BME280;5712;48.858;9.206;2022-08-19T06:56:30;97797.38;;;19.18;100.00
11314;BME280;5712;48.858;9.206;2022-08-19T06:59:00;97803.63;;;19.27;100.00
11314;BME280;5712;48.858;9.206;2022-08-19T07:01:26;97800.41;;;19.31;99.91
11314;BME280;5712;48.858;9.206;2022-08-19T07:03:54;97798.75;;;19.46;99.06
11314;BME280;5712;48.858;9.206;2022-08-19T07:06:21;97800.72;;;19.60;98.31
11314;BME280;5712;48.858;9.206;2022-08-19T07:08:48;97801.53;;;19.77;96.66
11314;BME280;5712;48.858;9.206;2022-08-19T07:11:16;97804.34;;;19.91;96.44
11314;BME280;5712;48.858;9.206;2022-08-19T07:13:44;97807.00;;;19.99;95.61
11314;BME280;5712;48.858;9.206;2022-08-19T07:16:15;97808.00;;;20.06;94.60
11314;BME280;5712;48.858;9.206;2022-08-19T07:18:42;97810.22;;;20.11;94.08
11314;BME280;5712;48.858;9.206;2022-08-19T07:21:16;97821.75;;;20.11;93.90
11314;BME280;5712;48.858;9.206;2022-08-19T07:23:44;97812.38;;;20.15;93.46
11314;BME280;5712;48.858;9.206;2022-08-19T07:26:16;97811.66;;;20.21;93.94
11314;BME280;5712;48.858;9.206;2022-08-19T07:28:45;97818.72;;;20.22;92.98
11314;BME280;5712;48.858;9.206;2022-08-19T07:31:14;97809.25;;;20.34;91.34
11314;BME280;5712;48.858;9.206;2022-08-19T07:33:43;97813.28;;;20.38;90.91
11314;BME280;5712;48.858;9.206;2022-08-19T07:36:14;97810.88;;;20.43;91.57
11314;BME280;5712;48.858;9.206;2022-08-19T07:38:46;97816.56;;;20.48;91.25
11314;BME280;5712;48.858;9.206;2022-08-19T07:41:16;97813.88;;;20.56;89.85
11314;BME280;5712;48.858;9.206;2022-08-19T07:43:44;97814.38;;;20.52;89.22
11314;BME280;5712;48.858;9.206;2022-08-19T07:46:12;97829.31;;;20.54;89.30
11314;BME280;5712;48.858;9.206;2022-08-19T07:48:41;97825.59;;;20.55;88.39
11314;BME280;5712;48.858;9.206;2022-08-19T07:51:11;97827.50;;;20.47;88.90
11314;BME280;5712;48.858;9.206;2022-08-19T07:53:38;97827.19;;;20.42;89.37
11314;BME280;5712;48.858;9.206;2022-08-19T07:56:05;97820.34;;;20.31;90.18
11314;BME280;5712;48.858;9.206;2022-08-19T07:58:35;97826.09;;;20.20;91.32
11314;BME280;5712;48.858;9.206;2022-08-19T08:01:04;97825.63;;;20.09;92.02
11314;BME280;5712;48.858;9.206;2022-08-19T08:03:32;97831.47;;;20.04;92.66
11314;BME280;5712;48.858;9.206;2022-08-19T08:06:17;97827.78;;;20.05;92.58
11314;BME280;5712;48.858;9.206;2022-08-19T08:09:17;97828.09;;;20.18;92.22
11314;BME280;5712;48.858;9.206;2022-08-19T08:11:49;97826.22;;;20.27;91.29
11314;BME280;5712;48.858;9.206;2022-08-19T08:14:19;97830.75;;;20.34;90.43
11314;BME280;5712;48.858;9.206;2022-08-19T08:16:46;97832.72;;;20.40;90.14
11314;BME280;5712;48.858;9.206;2022-08-19T08:19:17;97836.22;;;20.49;89.69
11314;BME280;5712;48.858;9.206;2022-08-19T08:21:45;97837.25;;;20.40;90.57
11314;BME280;5712;48.858;9.206;2022-08-19T08:24:13;97847.28;;;19.91;98.62
11314;BME280;5712;48.858;9.206;2022-08-19T08:26:40;97846.66;;;19.41;100.00
11314;BME280;5712;48.858;9.206;2022-08-19T08:29:07;97839.09;;;19.13;100.00
11314;BME280;5712;48.858;9.206;2022-08-19T08:31:39;97840.25;;;19.10;100.00
11314;BME280;5712;48.858;9.206;2022-08-19T08:34:06;97832.69;;;19.06;100.00
11314;BME280;5712;48.858;9.206;2022-08-19T08:36:36;97837.88;;;18.99;100.00
11314;BME280;5712;48.858;9.206;2022-08-19T08:39:09;97834.84;;;18.94;100.00
11314;BME280;5712;48.858;9.206;2022-08-19T08:41:43;97838.84;;;18.82;100.00
11314;BME280;5712;48.858;9.206;2022-08-19T08:44:15;97835.84;;;18.85;100.00
11314;BME280;5712;48.858;9.206;2022-08-19T08:46:47;97826.47;;;18.97;100.00
11314;BME280;5712;48.858;9.206;2022-08-19T08:49:33;97835.09;;;19.33;100.00
11314;BME280;5712;48.858;9.206;2022-08-19T08:52:08;97831.56;;;19.72;100.00
11314;BME280;5712;48.858;9.206;2022-08-19T08:54:40;97834.53;;;20.09;100.00
11314;BME280;5712;48.858;9.206;2022-08-19T08:57:13;97832.38;;;20.43;100.00
11314;BME280;5712;48.858;9.206;2022-08-19T08:59:42;97829.94;;;20.64;100.00
11314;BME280;5712;48.858;9.206;2022-08-19T09:02:10;97827.19;;;20.72;97.54
11314;BME280;5712;48.858;9.206;2022-08-19T09:04:37;97835.56;;;20.77;97.01
11314;BME280;5712;48.858;9.206;2022-08-19T09:07:26;97836.19;;;20.87;95.43
11314;BME280;5712;48.858;9.206;2022-08-19T09:10:03;97840.56;;;20.88;95.23
11314;BME280;5712;48.858;9.206;2022-08-19T09:12:37;97840.03;;;20.93;94.60
11314;BME280;5712;48.858;9.206;2022-08-19T09:15:07;97844.88;;;20.97;94.39
11314;BME280;5712;48.858;9.206;2022-08-19T09:17:36;97839.00;;;21.02;95.53
11314;BME280;5712;48.858;9.206;2022-08-19T09:20:06;97839.47;;;21.05;95.80
11314;BME280;5712;48.858;9.206;2022-08-19T09:22:41;97842.44;;;21.10;93.69
11314;BME280;5712;48.858;9.206;2022-08-19T09:25:13;97846.81;;;21.11;93.06
11314;BME280;5712;48.858;9.206;2022-08-19T09:27:41;97846.75;;;21.19;93.04
11314;BME280;5712;48.858;9.206;2022-08-19T09:30:11;97853.44;;;21.23;92.81
11314;BME280;5712;48.858;9.206;2022-08-19T09:32:39;97849.75;;;21.24;91.52
11314;BME280;5712;48.858;9.206;2022-08-19T09:35:08;97853.06;;;21.26;91.76
11314;BME280;5712;48.858;9.206;2022-08-19T09:37:34;97846.34;;;21.30;91.98
11314;BME280;5712;48.858;9.206;2022-08-19T09:40:02;97846.81;;;21.34;93.07
11314;BME280;5712;48.858;9.206;2022-08-19T09:42:31;97848.31;;;21.36;91.71
11314;BME280;5712;48.858;9.206;2022-08-19T09:44:57;97843.50;;;21.46;91.24
11314;BME280;5712;48.858;9.206;2022-08-19T09:47:24;97852.25;;;21.48;91.70
11314;BME280;5712;48.858;9.206;2022-08-19T09:49:51;97845.47;;;21.52;90.34
11314;BME280;5712;48.858;9.206;2022-08-19T09:52:17;97851.88;;;21.51;89.85
11314;BME280;5712;48.858;9.206;2022-08-19T09:54:44;97852.34;;;21.55;90.32
11314;BME280;5712;48.858;9.206;2022-08-19T09:57:11;97852.81;;;21.58;89.76
11314;BME280;5712;48.858;9.206;2022-08-19T09:59:39;97852.81;;;21.58;89.33
11314;BME280;5712;48.858;9.206;2022-08-19T10:02:06;97867.66;;;21.54;90.24
11314;BME280;5712;48.858;9.206;2022-08-19T10:04:35;97851.88;;;21.51;90.66
11314;BME280;5712;48.858;9.206;2022-08-19T10:07:15;97853.19;;;21.55;89.46
11314;BME280;5712;48.858;9.206;2022-08-19T10:09:42;97856.19;;;21.60;88.79
11314;BME280;5712;48.858;9.206;2022-08-19T10:12:09;97844.41;;;21.61;88.87
11314;BME280;5712;48.858;9.206;2022-08-19T10:14:36;97845.38;;;21.68;88.69
11314;BME280;5712;48.858;9.206;2022-08-19T10:17:04;97847.69;;;21.71;89.13
11314;BME280;5712;48.858;9.206;2022-08-19T10:19:30;97846.78;;;21.79;88.66
11314;BME280;5712;48.858;9.206;2022-08-19T10:22:03;97846.34;;;21.90;87.73
11314;BME280;5712;48.858;9.206;2022-08-19T10:24:29;97835.41;;;21.91;87.33
11314;BME280;5712;48.858;9.206;2022-08-19T10:26:56;97834.00;;;21.95;86.46
11314;BME280;5712;48.858;9.206;2022-08-19T10:29:23;97837.72;;;21.94;87.32
11314;BME280;5712;48.858;9.206;2022-08-19T10:31:50;97839.31;;;22.03;85.97
11314;BME280;5712;48.858;9.206;2022-08-19T10:34:18;97836.97;;;22.00;86.83
11314;BME280;5712;48.858;9.206;2022-08-19T10:36:45;97832.72;;;22.06;86.32
11314;BME280;5712;48.858;9.206;2022-08-19T10:39:11;97832.72;;;22.06;86.66
11314;BME280;5712;48.858;9.206;2022-08-19T10:41:39;97825.66;;;22.05;85.66
11314;BME280;5712;48.858;9.206;2022-08-19T10:44:10;97819.06;;;21.93;85.35
11314;BME280;5712;48.858;9.206;2022-08-19T10:46:40;97821.56;;;21.94;85.84
11314;BME280;5712;48.858;9.206;2022-08-19T10:49:09;97829.94;;;21.99;85.34
11314;BME280;5712;48.858;9.206;2022-08-19T10:51:39;97832.53;;;22.07;83.51
11314;BME280;5712;48.858;9.206;2022-08-19T10:54:24;97830.50;;;22.09;83.12
11314;BME280;5712;48.858;9.206;2022-08-19T10:57:11;97829.03;;;22.21;82.40
11314;BME280;5712;48.858;9.206;2022-08-19T10:59:38;97837.56;;;22.39;80.85
11314;BME280;5712;48.858;9.206;2022-08-19T11:02:08;97841.09;;;22.54;79.87
11314;BME280;5712;48.858;9.206;2022-08-19T11:04:35;97826.41;;;22.71;79.10
11314;BME280;5712;48.858;9.206;2022-08-19T11:07:04;97824.94;;;22.90;77.88
11314;BME280;5712;48.858;9.206;2022-08-19T11:09:37;97820.72;;;23.02;75.54
11314;BME280;5712;48.858;9.206;2022-08-19T11:12:05;97832.03;;;23.26;75.60
11314;BME280;5712;48.858;9.206;2022-08-19T11:14:33;97821.63;;;23.44;74.23
11314;BME280;5712;48.858;9.206;2022-08-19T11:17:01;97830.19;;;23.54;74.11
11314;BME280;5712;48.858;9.206;2022-08-19T11:19:28;97830.69;;;23.58;73.31
11314;BME280;5712;48.858;9.206;2022-08-19T11:21:55;97834.00;;;23.60;72.58
11314;BME280;5712;48.858;9.206;2022-08-19T11:24:25;97825.06;;;23.59;72.71
11314;BME280;5712;48.858;9.206;2022-08-19T11:26:54;97822.00;;;23.62;73.37
11314;BME280;5712;48.858;9.206;2022-08-19T11:29:25;97828.31;;;23.76;71.99
11314;BME280;5712;48.858;9.206;2022-08-19T11:31:53;97827.88;;;23.72;72.33
11314;BME280;5712;48.858;9.206;2022-08-19T11:34:23;97829.94;;;23.70;71.98
11314;BME280;5712;48.858;9.206;2022-08-19T11:36:51;97828.16;;;23.56;72.90
11314;BME280;5712;48.858;9.206;2022-08-19T11:39:19;97830.59;;;23.51;72.58
11314;BME280;5712;48.858;9.206;2022-08-19T11:41:47;97836.00;;;23.51;71.89
11314;BME280;5712;48.858;9.206;2022-08-19T11:44:14;97835.47;;;23.41;72.81
11314;BME280;5712;48.858;9.206;2022-08-19T11:46:42;97824.19;;;23.31;72.94
11314;BME280;5712;48.858;9.206;2022-08-19T11:49:11;97832.03;;;23.26;73.25
11314;BME280;5712;48.858;9.206;2022-08-19T11:51:39;97832.97;;;23.19;73.37
11314;BME280;5712;48.858;9.206;2022-08-19T11:54:07;97833.16;;;23.17;73.66
11314;BME280;5712;48.858;9.206;2022-08-19T11:56:36;97835.38;;;23.14;73.97
11314;BME280;5712;48.858;9.206;2022-08-19T11:59:04;97828.44;;;23.19;73.92
11314;BME280;5712;48.858;9.206;2022-08-19T12:01:31;97831.50;;;23.16;73.25
11314;BME280;5712;48.858;9.206;2022-08-19T12:03:58;97826.09;;;23.16;73.71
11314;BME280;5712;48.858;9.206;2022-08-19T12:06:27;97826.47;;;23.13;73.85
11314;BME280;5712;48.858;9.206;2022-08-19T12:08:54;97825.25;;;23.16;74.25
11314;BME280;5712;48.858;9.206;2022-08-19T12:11:21;97828.13;;;23.14;74.37
11314;BME280;5712;48.858;9.206;2022-08-19T12:13:49;97831.13;;;23.19;74.05
11314;BME280;5712;48.858;9.206;2022-08-19T12:16:19;97826.19;;;23.23;74.44
11314;BME280;5712;48.858;9.206;2022-08-19T12:18:46;97807.81;;;23.33;72.36
11314;BME280;5712;48.858;9.206;2022-08-19T12:21:13;97823.91;;;23.47;72.03
11314;BME280;5712;48.858;9.206;2022-08-19T12:23:41;97814.69;;;23.56;71.12
11314;BME280;5712;48.858;9.206;2022-08-19T12:26:09;97815.84;;;23.75;71.02
11314;BME280;5712;48.858;9.206;2022-08-19T12:28:37;97817.72;;;23.95;70.43
11314;BME280;5712;48.858;9.206;2022-08-19T12:31:04;97819.44;;;24.09;69.49
11314;BME280;5712;48.858;9.206;2022-08-19T12:33:32;97825.16;;;24.21;69.43
11314;BME280;5712;48.858;9.206;2022-08-19T12:36:00;97816.22;;;24.20;68.77
11314;BME280;5712;48.858;9.206;2022-08-19T12:38:28;97814.16;;;24.22;68.21
11314;BME280;5712;48.858;9.206;2022-08-19T12:40:55;97816.22;;;24.20;68.79
11314;BME280;5712;48.858;9.206;2022-08-19T12:43:21;97817.25;;;24.19;68.50
11314;BME280;5712;48.858;9.206;2022-08-19T12:45:48;97820.13;;;24.11;68.53
11314;BME280;5712;48.858;9.206;2022-08-19T12:48:15;97816.53;;;24.04;68.35
11314;BME280;5712;48.858;9.206;2022-08-19T12:50:44;97819.00;;;23.99;68.79
11314;BME280;5712;48.858;9.206;2022-08-19T12:53:12;97816.03;;;23.94;69.00
11314;BME280;5712;48.858;9.206;2022-08-19T12:55:39;97820.16;;;23.90;69.35
11314;BME280;5712;48.858;9.206;2022-08-19T12:58:05;97827.63;;;23.88;69.90
11314;BME280;5712;48.858;9.206;2022-08-19T13:00:32;97833.88;;;23.89;67.07
11314;BME280;5712;48.858;9.206;2022-08-19T13:02:59;97830.69;;;23.85;67.74
11314;BME280;5712;48.858;9.206;2022-08-19T13:05:30;97835.84;;;23.80;67.71
11314;BME280;5712;48.858;9.206;2022-08-19T13:08:00;97836.22;;;23.77;68.57
11314;BME280;5712;48.858;9.206;2022-08-19T13:10:30;97836.38;;;23.69;67.39
11314;BME280;5712;48.858;9.206;2022-08-19T13:13:02;97839.84;;;23.63;66.87
11314;BME280;5712;48.858;9.206;2022-08-19T13:15:32;97835.59;;;23.54;68.27
11314;BME280;5712;48.858;9.206;2022-08-19T13:18:00;97843.47;;;23.49;71.02